Coral Canyon GC
1925 N Canyon Greens Drive, Washington
Last Weather Update:12/30/2011 11:00:00 PM
Date
ETo
ETc
Rain
Irrigation
Req
Temp
Max
Temp
Min
Temp
Avg
Avg RH
Avg Wind
Avg Solar
inches
inches
incehs
inches
F
F
F
%
%
watts/m2
11/01/2011 0.11" 0.05" 0.00" 0.05" 71.3° 34.4° 50.6° 41.9% 3.8 MPH 166.1w/m2
11/02/2011 0.11" 0.05" 0.00" 0.05" 60.2° 37.9° 48.8° 27.9% 5.2 MPH 175.3w/m2
11/03/2011 0.10" 0.05" 0.00" 0.05" 69.6° 27.0° 51.0° 26.1% 2.7 MPH 167.7w/m2
11/04/2011 0.12" 0.05" 0.13" -0.05" 64.9° 40.1° 54.3° 33.8% 5.1 MPH 151.4w/m2
11/05/2011 0.07" 0.03" 0.02" 0.01" 50.5° 37.2° 43.2° 61.4% 4.0 MPH 154.3w/m2
11/06/2011 0.02" 0.01" 0.07" -0.05" 47.2° 27.7° 38.0° 78.5% 1.6 MPH 32.4w/m2
11/07/2011 0.07" 0.03" 0.00" 0.03" 53.5° 31.2° 42.6° 73.2% 2.1 MPH 161.2w/m2
11/08/2011 0.06" 0.02" 0.00" 0.02" 53.2° 25.5° 38.3° 66.8% 1.8 MPH 159.9w/m2
11/09/2011 0.07" 0.02" 0.00" 0.02" 58.1° 28.5° 41.4° 54.6% 1.7 MPH 159.7w/m2
11/10/2011 0.07" 0.02" 0.00" 0.02" 63.7° 28.3° 44.9° 45.6% 1.7 MPH 136.9w/m2
11/11/2011 0.06" 0.02" 0.00" 0.02" 58.4° 36.1° 48.8° 42.8% 2.1 MPH 87.2w/m2
11/12/2011 0.07" 0.02" 0.00" 0.02" 63.2° 34.2° 48.7° 49.4% 2.0 MPH 121.9w/m2
11/13/2011 0.04" 0.01" 0.00" 0.01" 57.6° 34.6° 45.2° 64.6% 1.9 MPH 71.7w/m2
11/14/2011 0.06" 0.02" 0.00" 0.02" 61.9° 32.6° 47.1° 71.1% 1.7 MPH 134.5w/m2
11/15/2011 0.07" 0.02" 0.00" 0.02" 62.7° 34.8° 47.5° 68.5% 1.6 MPH 139.9w/m2
11/16/2011 0.07" 0.02" 0.00" 0.02" 61.2° 28.8° 42.6° 58.0% 1.3 MPH 146.1w/m2
11/17/2011 0.06" 0.01" 0.00" 0.01" 62.2° 25.6° 41.2° 57.7% 1.6 MPH 139.1w/m2
11/18/2011 0.07" 0.01" 0.00" 0.01" 65.6° 27.2° 45.1° 55.0% 2.1 MPH 141.0w/m2
11/19/2011 0.07" 0.01" 0.00" 0.01" 61.6° 37.8° 49.9° 49.8% 2.7 MPH 120.3w/m2
11/20/2011 0.05" 0.01" 0.00" 0.01" 60.1° 42.8° 51.9° 53.6% 2.1 MPH 89.5w/m2
11/21/2011 0.05" 0.01" 0.21" -0.16" 56.8° 36.9° 47.9° 82.2% 2.0 MPH 102.3w/m2
11/22/2011 0.05" 0.01" 0.00" 0.01" 57.7° 30.0° 42.1° 81.7% 1.2 MPH 126.6w/m2
11/23/2011 0.06" 0.01" 0.00" 0.01" 65.1° 29.2° 45.2° 68.9% 1.8 MPH 128.2w/m2
11/24/2011 0.06" 0.01" 0.00" 0.01" 65.4° 31.8° 48.0° 57.5% 2.2 MPH 115.1w/m2
11/25/2011 0.06" 0.01" 0.00" 0.01" 62.2° 28.5° 43.9° 66.4% 2.1 MPH 134.4w/m2
11/26/2011 0.07" 0.00" 0.00" 0.00" 60.1° 29.9° 44.3° 46.4% 2.3 MPH 134.3w/m2
11/27/2011 0.06" 0.00" 0.00" 0.00" 61.3° 24.4° 40.8° 50.9% 1.9 MPH 133.8w/m2
11/28/2011 0.05" 0.00" 0.00" 0.00" 58.1° 28.7° 41.4° 57.8% 1.6 MPH 105.0w/m2
11/29/2011 0.06" 0.00" 0.00" 0.00" 65.9° 25.0° 41.7° 57.7% 2.0 MPH 130.9w/m2
11/30/2011 0.07" 0.00" 0.00" 0.00" 59.5° 24.8° 44.1° 48.9% 3.2 MPH 129.3w/m2
Totals: 2.03" 0.53" 0.43" 0.19" 71.3° 24.4° 45.3° 56.6% 2.3 MPH 129.9w/m2